Time;durP1;ratioP1;P1;durP2;ratioP2;P2;SDS_P1;SDS_P2;PMS_P1;PMS_P2;Temp;Humidity;BMP_temperature;BMP_pressure;BME280_temperature;BME280_humidity;BME280_pressure;Samples;Min_cycle;Max_cycle;Signal;HPM_P1;HPM_P2
2022/07/11 00:01:10;;;;;;;;;5.00;4.00;;;;;22.05;43.31;102022.13;5079013;28;45415;-66
2022/07/11 00:03:36;;;;;;;;;3.00;3.00;;;;;22.07;43.41;102019.31;5079514;27;52565;-65
2022/07/11 00:06:01;;;;;;;;;1.33;1.33;;;;;22.05;43.49;102018.59;5080033;27;46901;-66
2022/07/11 00:08:27;;;;;;;;;2.67;2.67;;;;;22.03;43.35;102018.72;5078907;27;66027;-66
2022/07/11 00:10:53;;;;;;;;;2.33;2.33;;;;;22.02;42.92;102018.81;5080069;27;45812;-65
2022/07/11 00:13:18;;;;;;;;;3.00;3.00;;;;;22.02;43.19;102019.69;5080020;27;45390;-66
2022/07/11 00:15:44;;;;;;;;;3.00;3.00;;;;;22.00;43.57;102018.09;5079848;27;45368;-66
2022/07/11 00:18:09;;;;;;;;;2.00;2.00;;;;;22.01;43.10;102025.22;5077774;27;68110;-66
2022/07/11 00:20:34;;;;;;;;;3.33;3.33;;;;;22.02;43.61;102022.41;5078975;27;66639;-66
2022/07/11 00:23:00;;;;;;;;;3.33;3.33;;;;;22.04;42.60;102016.84;5079728;27;45678;-65
2022/07/11 00:25:25;;;;;;;;;3.00;3.00;;;;;22.02;42.84;102022.41;5078932;27;74461;-66
2022/07/11 00:27:50;;;;;;;;;3.00;3.00;;;;;22.02;42.86;102022.41;5078765;27;69109;-65
2022/07/11 00:30:17;;;;;;;;;4.00;2.00;;;;;21.99;43.22;102019.91;5078930;27;64227;-66
2022/07/11 00:32:42;;;;;;;;;4.33;4.33;;;;;21.95;44.19;102021.16;5079601;27;45346;-66
2022/07/11 00:35:08;;;;;;;;;3.33;3.33;;;;;21.89;42.94;102016.22;5079673;27;45314;-66
2022/07/11 00:37:33;;;;;;;;;4.00;2.67;;;;;21.85;43.79;102012.91;5079564;27;45354;-66
2022/07/11 00:39:59;;;;;;;;;3.00;3.00;;;;;21.81;43.34;102012.28;5079429;27;52654;-65
2022/07/11 00:42:25;;;;;;;;;3.00;3.00;;;;;21.77;43.54;102018.94;5079479;27;45504;-66
2022/07/11 00:44:50;;;;;;;;;4.00;2.33;;;;;21.74;43.73;102011.03;5079444;27;45298;-65
2022/07/11 00:47:15;;;;;;;;;3.00;3.00;;;;;21.72;43.78;102006.72;5079436;27;45454;-66
2022/07/11 00:49:40;;;;;;;;;2.00;2.00;;;;;21.68;43.71;102002.53;5078922;27;55485;-66
2022/07/11 00:52:06;;;;;;;;;4.00;4.00;;;;;21.68;43.84;102002.53;5078902;27;52137;-65
2022/07/11 00:54:32;;;;;;;;;3.00;3.00;;;;;21.64;43.71;101999.19;5078975;27;45357;-66
2022/07/11 00:56:57;;;;;;;;;3.00;3.00;;;;;21.63;43.63;101997.50;5080829;27;45314;-66
2022/07/11 00:59:22;;;;;;;;;2.00;2.00;;;;;21.58;44.58;101996.97;5081922;27;64918;-65
2022/07/11 01:01:48;;;;;;;;;2.33;2.33;;;;;21.55;44.13;101998.09;5082985;28;45334;-65
2022/07/11 01:04:13;;;;;;;;;3.00;3.00;;;;;21.54;43.85;101995.47;5082465;27;45308;-65
2022/07/11 01:06:38;;;;;;;;;3.00;3.00;;;;;21.51;44.44;101992.97;5081540;27;71098;-66
2022/07/11 01:09:04;;;;;;;;;2.33;2.33;;;;;21.46;44.35;102002.34;5081935;27;67066;-66
2022/07/11 01:11:29;;;;;;;;;3.00;3.00;;;;;21.44;44.19;101998.00;5082595;27;45392;-66
2022/07/11 01:13:54;;;;;;;;;3.00;2.67;;;;;21.42;44.83;102005.38;5081787;27;68919;-65
2022/07/11 01:16:23;;;;;;;;;2.00;0.67;;;;;21.38;44.85;101993.06;5081796;27;61579;-66
2022/07/11 01:18:53;;;;;;;;;3.33;3.33;;;;;21.37;44.76;101994.03;5082337;27;45417;-65
2022/07/11 01:21:38;;;;;;;;;1.67;1.67;;;;;21.33;44.82;101993.44;5082709;27;45722;-66
2022/07/11 01:24:04;;;;;;;;;2.67;2.67;;;;;21.31;44.89;101995.41;5082152;27;47098;-66
2022/07/11 01:26:30;;;;;;;;;4.00;2.00;;;;;21.30;44.63;101997.25;5082263;27;45386;-66
2022/07/11 01:29:04;;;;;;;;;5.00;2.00;;;;;21.28;44.77;101992.94;5082512;27;45322;-65
2022/07/11 01:31:30;;;;;;;;;2.00;2.00;;;;;21.24;45.24;101995.00;5082304;27;45732;-65
2022/07/11 01:33:55;;;;;;;;;1.33;1.33;;;;;21.22;44.66;101996.09;5081180;27;64424;-65
2022/07/11 01:36:20;;;;;;;;;4.00;2.00;;;;;21.22;45.52;102001.50;5082126;27;45672;-65
2022/07/11 01:38:46;;;;;;;;;3.33;3.33;;;;;21.17;44.98;101991.03;5082343;27;45425;-65
2022/07/11 01:41:11;;;;;;;;;2.00;2.00;;;;;21.15;44.99;101993.84;5082400;27;45298;-65
2022/07/11 01:43:37;;;;;;;;;2.67;2.67;;;;;21.13;45.33;102001.25;5082014;27;45375;-65
2022/07/11 01:46:02;;;;;;;;;2.00;2.00;;;;;21.07;46.03;101992.75;5082189;27;45374;-65
2022/07/11 01:48:28;;;;;;;;;3.00;3.00;;;;;21.02;45.81;101997.63;5081834;27;45369;-65
2022/07/11 01:50:53;;;;;;;;;1.00;1.00;;;;;21.00;45.82;101989.63;5082237;27;45479;-66
2022/07/11 01:53:19;;;;;;;;;3.00;3.00;;;;;20.99;45.44;101999.59;5080879;27;69878;-65
2022/07/11 01:55:44;;;;;;;;;3.00;3.00;;;;;20.95;45.53;101987.28;5082009;27;45149;-65
2022/07/11 01:58:09;;;;;;;;;2.00;2.00;;;;;20.90;45.76;101997.56;5081966;27;45333;-65
2022/07/11 02:00:35;;;;;;;;;3.67;3.67;;;;;20.87;46.22;101995.13;5081171;27;66236;-65
2022/07/11 02:03:00;;;;;;;;;3.00;2.00;;;;;20.84;46.05;101992.63;5081422;27;48199;-65
2022/07/11 02:05:26;;;;;;;;;2.00;2.00;;;;;20.82;46.37;101991.88;5081654;27;45335;-65
2022/07/11 02:10:35;;;;;;;;;2.00;2.00;;;;;20.77;46.24;101996.78;5081858;28;45504;-66
2022/07/11 02:13:01;;;;;;;;;2.00;2.00;;;;;20.74;46.75;101996.97;5081320;27;46269;-65
2022/07/11 02:15:27;;;;;;;;;2.00;2.00;;;;;20.70;45.89;101999.06;5079858;28;58858;-65
2022/07/11 02:17:52;;;;;;;;;1.00;1.00;;;;;20.67;46.84;101992.00;5081281;27;45507;-64
2022/07/11 02:20:19;;;;;;;;;3.00;3.00;;;;;20.65;46.63;101987.72;5081767;27;45358;-65
2022/07/11 02:22:44;;;;;;;;;1.00;1.00;;;;;20.64;46.30;101994.09;5081028;28;46444;-65
2022/07/11 02:25:10;;;;;;;;;3.00;3.00;;;;;20.63;46.40;101992.34;5081462;27;45351;-65
2022/07/11 02:27:35;;;;;;;;;1.33;1.33;;;;;20.62;46.33;101994.22;5081531;27;45332;-65
2022/07/11 02:30:00;;;;;;;;;2.33;2.00;;;;;20.62;46.38;101986.09;5081315;27;45539;-66
2022/07/11 02:32:26;;;;;;;;;2.00;2.00;;;;;20.62;46.87;101983.41;5080235;27;73513;-64
2022/07/11 02:34:51;;;;;;;;;3.00;3.00;;;;;20.63;46.37;101984.25;5080519;27;58461;-66
2022/07/11 02:37:16;;;;;;;;;3.00;3.00;;;;;20.63;46.34;101981.53;5080416;27;62708;-64
2022/07/11 02:39:41;;;;;;;;;2.00;2.00;;;;;20.61;46.38;101978.97;5080443;27;65826;-65
2022/07/11 02:42:07;;;;;;;;;3.00;2.67;;;;;20.58;46.63;101987.28;5080407;27;57548;-65
2022/07/11 02:44:32;;;;;;;;;5.00;3.00;;;;;20.55;46.64;101984.81;5081238;27;45502;-64
2022/07/11 02:46:57;;;;;;;;;2.00;2.00;;;;;20.57;46.74;101990.97;5080261;27;63305;-65
2022/07/11 02:49:23;;;;;;;;;2.00;2.00;;;;;20.59;46.74;101993.56;5080212;27;65871;-64
2022/07/11 02:51:48;;;;;;;;;2.33;2.00;;;;;20.59;46.51;101986.31;5080748;27;47175;-65
2022/07/11 02:54:14;;;;;;;;;5.00;3.33;;;;;20.57;46.79;101990.97;5081130;27;45314;-65
2022/07/11 02:56:39;;;;;;;;;6.00;4.00;;;;;20.55;46.75;101987.50;5080073;27;67196;-65
2022/07/11 02:59:04;;;;;;;;;3.00;3.00;;;;;20.55;47.20;101992.06;5080192;27;64813;-65
2022/07/11 03:01:30;;;;;;;;;5.00;5.00;;;;;20.52;46.88;101981.47;5080869;28;45383;-66
2022/07/11 03:03:55;;;;;;;;;3.00;3.00;;;;;20.47;46.91;101981.81;5080665;27;45353;-66
2022/07/11 03:06:20;;;;;;;;;5.00;3.67;;;;;20.47;47.01;101973.72;5080303;27;56497;-66
2022/07/11 03:08:47;;;;;;;;;5.33;5.00;;;;;20.43;47.37;101970.38;5080737;27;45340;-66
2022/07/11 03:11:12;;;;;;;;;5.00;5.00;;;;;20.43;47.44;101970.38;5080733;27;46150;-66
2022/07/11 03:13:37;;;;;;;;;4.00;4.00;;;;;20.42;47.29;101976.75;5080706;27;45299;-65
2022/07/11 03:16:03;;;;;;;;;5.00;5.00;;;;;20.42;48.07;101976.75;5079928;27;64827;-65
2022/07/11 03:18:28;;;;;;;;;3.00;3.00;;;;;20.39;47.48;101982.38;5080110;27;45440;-65
2022/07/11 03:20:54;;;;;;;;;5.33;4.00;;;;;20.38;47.32;101974.41;5079075;27;70923;-66
2022/07/11 03:23:19;;;;;;;;;4.00;4.00;;;;;20.35;47.92;101974.59;5079523;27;68996;-65
2022/07/11 03:25:45;;;;;;;;;4.00;3.00;;;;;20.30;47.74;101983.06;5079971;27;59559;-65
2022/07/11 03:28:10;;;;;;;;;4.00;4.00;;;;;20.26;47.90;101977.00;5079524;27;67265;-65
2022/07/11 03:30:35;;;;;;;;;3.00;3.00;;;;;20.27;47.57;101981.44;5079567;27;70174;-65
2022/07/11 03:33:00;;;;;;;;;2.00;2.00;;;;;20.25;47.81;101980.69;5079354;27;66105;-66
2022/07/11 03:35:41;;;;;;;;;2.00;2.00;;;;;20.20;48.17;101979.31;5079802;27;62696;-65
2022/07/11 03:38:07;;;;;;;;;1.00;1.00;;;;;20.14;47.84;101983.28;5080527;27;45240;-65
2022/07/11 03:40:32;;;;;;;;;2.33;2.33;;;;;20.12;48.07;101974.44;5080057;27;45498;-66
2022/07/11 03:42:58;;;;;;;;;3.00;3.00;;;;;20.13;47.84;101974.34;5079550;27;62210;-65
2022/07/11 03:45:23;;;;;;;;;4.00;2.00;;;;;20.11;47.88;101978.97;5080137;27;49689;-66
2022/07/11 03:47:48;;;;;;;;;3.00;3.00;;;;;20.11;48.03;101986.22;5080316;27;45307;-66
2022/07/11 03:50:14;;;;;;;;;3.00;3.00;;;;;20.09;47.89;101977.34;5080220;27;46257;-65
2022/07/11 03:52:40;;;;;;;;;4.33;2.00;;;;;20.09;48.21;101978.22;5079996;27;45400;-65
2022/07/11 03:55:05;;;;;;;;;2.00;2.00;;;;;20.06;48.30;101981.13;5080307;27;45476;-66
2022/07/11 03:57:30;;;;;;;;;1.67;1.67;;;;;20.03;48.19;101980.50;5080100;27;45389;-66
2022/07/11 03:59:56;;;;;;;;;3.00;3.00;;;;;20.02;48.26;101981.47;5079117;27;70446;-65
2022/07/11 04:02:21;;;;;;;;;5.00;4.00;;;;;19.99;48.64;101974.47;5080054;27;45513;-64
2022/07/11 04:04:47;;;;;;;;;3.00;3.00;;;;;19.97;48.55;101977.28;5079356;27;56864;-66
2022/07/11 04:07:13;;;;;;;;;2.00;2.00;;;;;19.97;48.74;101977.28;5079994;27;45358;-65
2022/07/11 04:09:38;;;;;;;;;2.00;2.00;;;;;19.97;48.22;101979.09;5079808;28;46355;-65
2022/07/11 04:12:04;;;;;;;;;3.00;2.33;;;;;19.96;48.67;101980.94;5078926;27;71634;-65
2022/07/11 04:14:29;;;;;;;;;2.67;2.67;;;;;19.95;48.76;101976.50;5080065;27;45417;-65
2022/07/11 04:16:54;;;;;;;;;4.00;2.67;;;;;19.92;48.76;101979.44;5079852;27;45451;-65
2022/07/11 04:19:20;;;;;;;;;3.33;3.00;;;;;19.93;49.20;101983.00;5078759;27;69148;-65
2022/07/11 04:21:45;;;;;;;;;2.00;2.00;;;;;19.92;48.95;101979.44;5078811;27;71843;-65
2022/07/11 04:24:10;;;;;;;;;3.00;3.00;;;;;19.92;48.94;101987.53;5078934;27;69123;-65
2022/07/11 04:26:35;;;;;;;;;3.00;3.00;;;;;19.93;48.67;101985.69;5079001;27;63772;-65
2022/07/11 04:29:02;;;;;;;;;1.33;1.33;;;;;19.91;49.10;101985.81;5078998;27;64961;-64
2022/07/11 04:31:27;;;;;;;;;2.00;2.00;;;;;19.89;49.32;101995.84;5081814;28;45291;-66
2022/07/11 04:33:53;;;;;;;;;2.00;2.00;;;;;19.86;49.26;102003.31;5083149;28;45311;-65
2022/07/11 04:36:18;;;;;;;;;1.00;1.00;;;;;19.84;49.88;102000.69;5082273;27;65261;-66
2022/07/11 04:38:44;;;;;;;;;3.33;3.33;;;;;19.83;49.81;102004.41;5083034;27;49854;-66
2022/07/11 04:41:10;;;;;;;;;5.00;5.00;;;;;19.81;49.65;102001.78;5082907;27;45437;-65
2022/07/11 04:43:36;;;;;;;;;4.00;4.00;;;;;19.81;49.60;102000.91;5083058;27;45335;-66
2022/07/11 04:46:03;;;;;;;;;5.00;5.00;;;;;19.82;49.03;101997.25;5083038;27;45665;-65
2022/07/11 04:48:29;;;;;;;;;3.00;3.00;;;;;19.82;49.53;102000.81;5082636;27;46139;-65
2022/07/11 04:50:54;;;;;;;;;3.67;3.67;;;;;19.86;49.50;102004.16;5082785;27;45326;-65
2022/07/11 04:53:19;;;;;;;;;5.00;5.00;;;;;19.89;49.40;102005.78;5081976;27;62580;-66
2022/07/11 04:55:44;;;;;;;;;4.33;4.00;;;;;19.92;49.09;102003.75;5082139;27;63036;-66
2022/07/11 04:58:11;;;;;;;;;3.33;3.33;;;;;19.96;49.16;102012.50;5082406;27;46063;-66
2022/07/11 05:00:36;;;;;;;;;4.67;4.67;;;;;20.00;48.45;102008.59;5082611;28;45354;-66
2022/07/11 05:03:02;;;;;;;;;4.00;4.00;;;;;20.04;49.29;102015.50;5081763;27;61143;-66
2022/07/11 05:05:27;;;;;;;;;5.00;5.00;;;;;20.07;49.37;102011.72;5082798;27;45670;-66
2022/07/11 05:07:53;;;;;;;;;3.67;3.00;;;;;20.08;48.98;102018.84;5082537;27;45448;-66
2022/07/11 05:10:18;;;;;;;;;3.33;3.33;;;;;20.09;49.24;102013.34;5082508;28;45363;-66
2022/07/11 05:12:44;;;;;;;;;3.33;3.00;;;;;20.12;48.87;102014.97;5082632;27;45368;-66
2022/07/11 05:15:10;;;;;;;;;6.00;4.33;;;;;20.15;49.07;102020.13;5082646;27;45412;-68
2022/07/11 05:17:35;;;;;;;;;4.00;4.00;;;;;20.14;49.13;102024.69;5082421;27;45442;-66
2022/07/11 05:20:01;;;;;;;;;3.00;3.00;;;;;20.18;49.55;102028.03;5082544;27;45445;-66
2022/07/11 05:22:26;;;;;;;;;3.33;3.33;;;;;20.22;49.08;102028.66;5082265;27;49312;-66
2022/07/11 05:24:52;;;;;;;;;5.00;5.00;;;;;20.26;49.10;102024.75;5082826;27;45610;-66
2022/07/11 05:27:17;;;;;;;;;4.00;4.00;;;;;20.29;49.00;102022.69;5082214;27;46901;-66
2022/07/11 05:29:43;;;;;;;;;3.00;3.00;;;;;20.32;49.15;102024.31;5081976;28;45430;-67
2022/07/11 05:32:08;;;;;;;;;4.00;4.00;;;;;20.34;49.28;102035.88;5082551;27;45696;-66
2022/07/11 05:34:34;;;;;;;;;4.00;4.00;;;;;20.32;49.04;102030.59;5081847;27;45449;-66
2022/07/11 05:36:59;;;;;;;;;5.00;3.00;;;;;20.33;49.64;102029.59;5082141;27;46119;-66
2022/07/11 05:39:24;;;;;;;;;4.33;3.00;;;;;20.38;49.54;102029.28;5081122;27;68384;-66
2022/07/11 05:41:51;;;;;;;;;5.67;4.33;;;;;20.42;49.15;102025.38;5080794;27;60079;-67
2022/07/11 05:44:18;;;;;;;;;3.00;3.00;;;;;20.49;49.29;102028.50;5081976;27;45500;-66
2022/07/11 05:46:44;;;;;;;;;3.00;3.00;;;;;20.56;49.04;102026.19;5081965;27;46175;-66
2022/07/11 05:49:09;;;;;;;;;4.00;4.00;;;;;20.62;49.13;102031.16;5081499;27;45768;-66
2022/07/11 05:51:36;;;;;;;;;4.00;3.00;;;;;20.67;48.35;102029.84;5081358;27;57618;-67
2022/07/11 05:54:01;;;;;;;;;2.00;2.00;;;;;20.72;49.12;102024.13;5082009;27;45889;-68
2022/07/11 05:56:26;;;;;;;;;4.00;4.00;;;;;20.76;48.88;102024.78;5081569;27;46398;-66
2022/07/11 05:58:52;;;;;;;;;3.00;3.00;;;;;20.80;48.75;102029.81;5080484;27;72393;-66
2022/07/11 06:01:17;;;;;;;;;6.00;3.33;;;;;20.86;48.73;102024.94;5081699;28;45378;-66
2022/07/11 06:03:43;;;;;;;;;4.00;4.00;;;;;20.91;48.83;102022.75;5081675;27;45462;-66
2022/07/11 06:06:10;;;;;;;;;3.67;3.33;;;;;20.96;48.49;102021.47;5080560;27;71504;-66
2022/07/11 06:08:41;;;;;;;;;4.00;3.00;;;;;21.05;48.68;102029.84;5081504;27;45382;-66
2022/07/11 06:11:14;;;;;;;;;7.00;4.00;;;;;21.11;48.09;102023.97;5081677;27;45388;-65
2022/07/11 06:13:41;;;;;;;;;3.67;3.67;;;;;21.19;48.35;102028.81;5081439;27;45576;-65
2022/07/11 06:16:07;;;;;;;;;3.67;3.67;;;;;21.27;48.34;102021.81;5081198;27;47119;-66
2022/07/11 06:18:35;;;;;;;;;5.00;5.00;;;;;21.31;47.37;102027.88;5080778;27;45389;-67
2022/07/11 06:21:01;;;;;;;;;4.67;4.00;;;;;21.35;47.95;102036.63;5081288;27;45453;-65
2022/07/11 06:23:27;;;;;;;;;5.00;3.00;;;;;21.37;47.99;102027.41;5081242;27;45270;-67
2022/07/11 06:25:53;;;;;;;;;2.00;2.00;;;;;21.46;47.59;102034.81;5063386;28;46310;-66
2022/07/11 06:28:19;;;;;;;;;3.00;3.00;;;;;21.55;47.46;102029.69;5080106;28;45477;-66
2022/07/11 06:30:44;;;;;;;;;3.00;3.00;;;;;21.61;47.58;102035.47;5081987;27;45517;-67
2022/07/11 06:33:10;;;;;;;;;4.00;4.00;;;;;21.72;47.86;102031.97;5080745;27;66783;-66
2022/07/11 06:35:35;;;;;;;;;5.00;3.67;;;;;21.81;47.18;102035.78;5081774;27;47051;-67
2022/07/11 06:38:01;;;;;;;;;3.00;3.00;;;;;21.90;47.34;102029.66;5080411;27;45654;-66
2022/07/11 06:40:26;;;;;;;;;3.67;2.33;;;;;22.01;46.99;102025.22;5079234;28;45493;-66
2022/07/11 06:42:52;;;;;;;;;3.00;3.00;;;;;22.09;46.48;102034.44;5080016;27;45330;-69
2022/07/11 06:45:17;;;;;;;;;4.00;4.00;;;;;22.20;46.35;102032.72;5080265;28;45874;-66
2022/07/11 06:47:42;;;;;;;;;4.33;4.33;;;;;22.31;46.76;102019.19;5080091;28;56349;-65
2022/07/11 06:50:08;;;;;;;;;2.67;2.67;;;;;22.44;46.30;102024.50;5081135;27;45283;-66
2022/07/11 06:52:34;;;;;;;;;4.33;3.00;;;;;22.56;45.87;102026.19;5080716;27;45421;-66
2022/07/11 06:54:59;;;;;;;;;3.33;3.00;;;;;22.65;45.46;102019.16;5080592;27;45334;-67
2022/07/11 06:57:25;;;;;;;;;3.67;2.00;;;;;22.79;45.13;102026.16;5080494;27;45271;-65
2022/07/11 06:59:50;;;;;;;;;4.00;4.00;;;;;22.93;45.11;102023.16;5080583;27;45336;-66
2022/07/11 07:02:16;;;;;;;;;3.33;3.33;;;;;23.05;45.05;102024.00;5080609;28;45996;-66
2022/07/11 07:04:41;;;;;;;;;3.00;3.00;;;;;23.22;44.32;102028.03;5080048;27;46136;-67
2022/07/11 07:07:06;;;;;;;;;1.00;1.00;;;;;23.38;44.06;102024.84;5079844;27;45331;-67
2022/07/11 07:09:32;;;;;;;;;3.00;3.00;;;;;23.56;44.01;102027.00;5080065;27;45888;-66
2022/07/11 07:11:57;;;;;;;;;3.00;3.00;;;;;23.73;43.61;102023.66;5079799;28;45408;-67
2022/07/11 07:14:23;;;;;;;;;2.67;2.00;;;;;23.94;43.25;102023.66;5080107;27;45462;-67
2022/07/11 07:16:48;;;;;;;;;2.00;2.00;;;;;24.17;42.42;102028.94;5079967;27;52384;-68
2022/07/11 07:19:14;;;;;;;;;1.67;1.67;;;;;24.40;42.64;102026.84;5080533;27;45873;-68
2022/07/11 07:21:39;;;;;;;;;5.00;4.00;;;;;24.68;42.09;102035.28;5080248;27;45532;-66
2022/07/11 07:24:05;;;;;;;;;1.67;1.67;;;;;24.93;41.30;102022.97;5080072;27;46266;-66
2022/07/11 07:26:32;;;;;;;;;3.00;3.00;;;;;25.20;40.64;102017.84;5080049;28;45330;-66
2022/07/11 07:28:57;;;;;;;;;1.00;1.00;;;;;25.49;39.33;102022.41;5080306;27;45396;-67
2022/07/11 07:31:23;;;;;;;;;2.33;2.33;;;;;25.82;39.71;102028.41;5080076;27;45593;-66
2022/07/11 07:33:49;;;;;;;;;1.67;1.67;;;;;26.16;38.33;102020.53;5080097;27;45316;-67
2022/07/11 07:36:16;;;;;;;;;2.33;2.00;;;;;26.48;38.22;102021.97;5079983;27;45357;-67
2022/07/11 07:38:43;;;;;;;;;0.67;0.67;;;;;26.83;37.36;102027.66;5080448;27;45361;-68
2022/07/11 07:41:12;;;;;;;;;1.75;1.75;;;;;27.20;37.24;102030.25;5080037;27;45483;-68
2022/07/11 07:43:37;;;;;;;;;1.00;1.00;;;;;27.55;36.83;102027.66;5079790;27;46311;-68
2022/07/11 07:46:02;;;;;;;;;1.00;1.00;;;;;27.97;35.63;102017.84;5079540;27;52353;-68
2022/07/11 07:48:28;;;;;;;;;2.00;2.00;;;;;28.38;34.61;102029.88;5080094;27;45405;-68
2022/07/11 07:50:53;;;;;;;;;2.75;1.50;;;;;28.70;32.82;102020.06;5079241;27;64221;-68
2022/07/11 07:53:19;;;;;;;;;1.50;1.50;;;;;29.02;32.90;102029.38;5079696;28;45389;-68
2022/07/11 07:55:44;;;;;;;;;1.00;1.00;;;;;29.32;33.50;102026.13;5078844;27;71604;-68
2022/07/11 07:58:09;;;;;;;;;3.00;2.00;;;;;29.69;31.30;102028.34;5079977;27;45331;-67
2022/07/11 08:03:19;;;;;;;;;1.25;1.25;;;;;30.64;30.17;102026.66;5079570;28;45884;-67
2022/07/11 08:05:44;;;;;;;;;2.50;1.50;;;;;31.06;28.86;102032.75;5080245;27;63691;-69
2022/07/11 08:08:10;;;;;;;;;0.50;0.50;;;;;31.61;28.47;102038.13;5082543;27;68530;-68
2022/07/11 08:10:36;;;;;;;;;1.00;1.00;;;;;32.07;28.58;102031.66;5083549;27;45289;-68
2022/07/11 08:13:02;;;;;;;;;1.50;1.50;;;;;32.48;26.83;102021.00;5083036;27;46374;-68
2022/07/11 08:15:27;;;;;;;;;1.00;1.00;;;;;32.76;26.52;102027.69;5083239;28;45235;-69
2022/07/11 08:17:52;;;;;;;;;1.25;0.00;;;;;33.09;26.42;102017.00;5083083;27;45277;-69
2022/07/11 08:20:18;;;;;;;;;0.00;0.00;;;;;33.55;25.80;102017.63;5082057;27;69109;-71
2022/07/11 08:22:43;;;;;;;;;0.00;0.00;;;;;33.79;25.30;102024.56;5082062;27;63655;-68
2022/07/11 08:25:09;;;;;;;;;1.00;1.00;;;;;34.12;25.62;102024.78;5082777;27;45282;-68
2022/07/11 08:27:35;;;;;;;;;0.00;0.00;;;;;34.61;24.54;102011.84;5081863;28;45658;-68
2022/07/11 08:30:03;;;;;;;;;1.50;1.50;;;;;35.22;24.26;102012.78;5082941;27;45370;-68
2022/07/11 08:32:28;;;;;;;;;1.75;1.75;;;;;35.76;23.95;102008.09;5082474;27;46952;-69
2022/07/11 08:34:53;;;;;;;;;2.00;1.00;;;;;36.07;24.10;102002.91;5082888;28;45427;-68
2022/07/11 08:37:19;;;;;;;;;1.00;1.00;;;;;36.51;23.64;101992.09;5082725;27;45438;-68
2022/07/11 08:39:44;;;;;;;;;0.25;0.25;;;;;36.93;22.98;101992.47;5081820;27;66601;-68
2022/07/11 08:42:09;;;;;;;;;0.00;0.00;;;;;37.36;22.07;101985.28;5081434;27;74338;-69
2022/07/11 08:44:37;;;;;;;;;1.25;1.25;;;;;37.66;21.14;101988.19;5082243;27;67909;-69
2022/07/11 08:47:03;;;;;;;;;1.00;1.00;;;;;37.83;20.79;101982.88;5082839;27;45418;-68
2022/07/11 08:49:29;;;;;;;;;0.25;0.25;;;;;38.02;19.72;101986.50;5082463;27;45287;-68
2022/07/11 08:51:55;;;;;;;;;0.25;0.25;;;;;38.15;20.70;101984.63;5081316;28;46241;-68
2022/07/11 08:54:20;;;;;;;;;0.00;0.00;;;;;38.24;19.86;101994.38;5081869;27;70471;-69
2022/07/11 08:56:49;;;;;;;;;1.00;1.00;;;;;38.43;19.96;101997.13;5082575;27;45447;-69
2022/07/11 08:59:17;;;;;;;;;0.00;0.00;;;;;38.64;20.14;101982.69;5081319;28;45429;-69
2022/07/11 09:01:45;;;;;;;;;0.75;0.75;;;;;38.79;19.34;101984.22;5082194;27;46165;-69
2022/07/11 09:04:11;;;;;;;;;0.00;0.00;;;;;38.70;19.60;101986.47;5082313;27;45472;-69
2022/07/11 09:06:37;;;;;;;;;0.00;0.00;;;;;38.85;19.61;101989.69;5082265;27;45419;-69
2022/07/11 09:09:02;;;;;;;;;0.75;0.75;;;;;39.15;19.86;101985.97;5081526;27;66041;-69
2022/07/11 09:11:28;;;;;;;;;0.00;0.00;;;;;39.47;19.39;101979.22;5082250;28;45448;-69
2022/07/11 09:13:54;;;;;;;;;0.25;0.25;;;;;39.75;19.72;101975.69;5082492;27;45447;-70
2022/07/11 09:16:19;;;;;;;;;0.00;0.00;;;;;40.06;17.87;101979.09;5081333;27;63807;-69
2022/07/11 09:18:44;;;;;;;;;0.00;0.00;;;;;40.27;18.04;101985.13;5080494;27;67676;-69
2022/07/11 09:26:47;;;;;;;;;0.33;0.33;;;;;40.37;18.72;101974.19;5082232;28;45508;-70
2022/07/11 09:29:13;;;;;;;;;0.67;0.67;;;;;40.29;18.34;101971.81;5081970;27;45470;-69
2022/07/11 09:31:40;;;;;;;;;0.00;0.00;;;;;40.48;17.92;101969.63;5081952;27;46073;-70
2022/07/11 09:34:08;;;;;;;;;2.33;1.00;;;;;40.54;17.17;101968.66;5081781;28;45352;-68
2022/07/11 09:36:47;;;;;;;;;0.50;0.50;;;;;40.57;18.10;101975.69;5082203;27;45285;-70
2022/07/11 09:39:20;;;;;;;;;1.00;1.00;;;;;40.45;17.03;101965.41;5082100;28;45366;-71
2022/07/11 09:41:47;;;;;;;;;0.00;0.00;;;;;40.34;17.53;101961.59;5081811;27;45410;-71
2022/07/11 09:44:19;;;;;;;;;5.00;1.00;;;;;40.44;18.05;101963.72;5081574;27;45649;-71
2022/07/11 09:46:47;;;;;;;;;0.67;0.67;;;;;40.43;18.02;101964.81;5082080;27;45408;-71
2022/07/11 09:49:14;;;;;;;;;3.33;1.67;;;;;40.81;17.23;101965.25;5081662;27;45460;-71
2022/07/11 09:51:40;;;;;;;;;1.00;1.00;;;;;41.08;17.54;101964.56;5081876;27;45385;-71
2022/07/11 09:54:07;;;;;;;;;1.00;1.00;;;;;41.37;16.90;101961.66;5081722;27;45266;-71
2022/07/11 09:56:39;;;;;;;;;1.00;1.00;;;;;41.65;16.61;101963.47;5082030;27;45181;-69
2022/07/11 09:59:06;;;;;;;;;0.00;0.00;;;;;41.97;16.44;101962.78;5081588;27;45249;-70
2022/07/11 10:01:31;;;;;;;;;4.67;2.00;;;;;42.25;15.74;101961.72;5081665;27;45246;-71
2022/07/11 10:03:58;;;;;;;;;0.00;0.00;;;;;42.38;16.17;101960.44;5081343;27;45386;-71
2022/07/11 10:06:23;;;;;;;;;1.00;1.00;;;;;42.40;16.54;101961.03;5081576;27;45357;-71
2022/07/11 10:08:53;;;;;;;;;0.75;0.75;;;;;42.81;16.24;101958.63;5081776;27;45350;-71
2022/07/11 10:11:19;;;;;;;;;0.75;0.75;;;;;43.19;15.41;101958.63;5081310;27;46320;-71
2022/07/11 10:13:45;;;;;;;;;2.67;2.67;;;;;43.11;14.80;101954.41;5081450;27;45485;-71
2022/07/11 10:16:21;;;;;;;;;0.67;0.67;;;;;42.94;15.20;101957.31;5081620;27;45350;-72
2022/07/11 10:18:57;;;;;;;;;1.00;1.00;;;;;42.86;15.09;101959.78;5081443;27;45481;-72
2022/07/11 10:21:50;;;;;;;;;0.67;0.67;;;;;42.38;14.91;101962.41;5079794;28;46232;-71
2022/07/11 10:24:16;;;;;;;;;0.00;0.00;;;;;42.07;15.05;101965.66;5080826;28;45249;-72
2022/07/11 10:27:00;;;;;;;;;0.67;0.67;;;;;42.04;15.78;101960.63;5081807;27;45434;-71
2022/07/11 10:29:33;;;;;;;;;1.00;1.00;;;;;42.25;15.19;101969.25;5079679;28;45376;-72
2022/07/11 10:32:04;;;;;;;;;0.75;0.75;;;;;42.37;15.40;101971.91;5079997;28;45512;-72
2022/07/11 10:34:29;;;;;;;;;0.67;0.67;;;;;42.08;15.44;101967.38;5080787;27;45229;-72
2022/07/11 10:36:59;;;;;;;;;0.00;0.00;;;;;42.04;15.40;101973.75;5080204;27;65110;-73
2022/07/11 10:39:26;;;;;;;;;0.00;0.00;;;;;42.11;15.66;101966.00;5081202;27;45466;-72
2022/07/11 10:41:52;;;;;;;;;0.00;0.00;;;;;42.34;15.55;101962.09;5080755;27;46939;-73
2022/07/11 10:44:18;;;;;;;;;0.00;0.00;;;;;42.58;15.45;101971.00;5080934;27;45279;-73
2022/07/11 10:46:43;;;;;;;;;1.67;0.00;;;;;42.57;15.25;101969.31;5079360;28;53717;-73
2022/07/11 10:49:12;;;;;;;;;0.00;0.00;;;;;42.29;15.00;101964.84;5080722;27;45386;-73
2022/07/11 10:51:40;;;;;;;;;0.67;0.67;;;;;41.87;15.24;101960.72;5080903;27;45652;-73
2022/07/11 10:54:27;;;;;;;;;0.33;0.33;;;;;41.74;15.74;101972.25;5081064;27;45177;-72
2022/07/11 10:56:55;;;;;;;;;0.00;0.00;;;;;41.58;15.73;101968.38;5079677;28;45361;-72
2022/07/11 10:59:21;;;;;;;;;0.00;0.00;;;;;41.69;15.79;101956.25;5081104;27;45384;-73
2022/07/11 11:02:03;;;;;;;;;0.00;0.00;;;;;41.79;15.65;101961.13;5080623;28;45330;-73
2022/07/11 11:05:00;;;;;;;;;0.00;0.00;;;;;41.82;15.33;101963.44;5080573;27;45405;-73
2022/07/11 11:07:43;;;;;;;;;0.33;0.33;;;;;42.18;15.56;101958.28;5080707;27;45391;-74
2022/07/11 11:10:17;;;;;;;;;0.00;0.00;;;;;42.08;15.11;101945.03;5080958;27;45383;-72
2022/07/11 11:13:05;;;;;;;;;0.00;0.00;;;;;42.08;15.21;101941.41;5080496;27;46302;-72
2022/07/11 11:15:46;;;;;;;;;0.00;0.00;;;;;42.26;15.01;101943.84;5080648;27;45488;-73
2022/07/11 11:18:26;;;;;;;;;0.00;0.00;;;;;42.55;15.26;101943.56;5080415;27;45429;-74
2022/07/11 11:21:00;;;;;;;;;0.00;0.00;;;;;43.03;15.18;101934.47;5080653;27;45374;-73
2022/07/11 11:23:37;;;;;;;;;0.00;0.00;;;;;43.30;14.24;101942.78;5080456;27;46327;-72
2022/07/11 11:26:10;;;;;;;;;0.00;0.00;;;;;42.88;14.46;101952.81;5080411;27;45425;-73
2022/07/11 11:28:37;;;;;;;;;0.33;0.33;;;;;42.82;14.85;101939.91;5080691;27;45815;-75
2022/07/11 11:31:04;;;;;;;;;0.00;0.00;;;;;43.03;14.96;101929.69;5080325;27;45321;-74
2022/07/11 11:33:34;;;;;;;;;0.25;0.25;;;;;43.30;15.15;101928.78;5079868;27;46364;-74